Time,TemperatureF,DewpointF,PressureIn,WindDirection,WindDirectionDegrees,WindSpeedMPH,WindSpeedGustMPH,Humidity,HourlyPrecipIn,Conditions,Clouds,dailyrainin,SolarRadiationWatts/m^2,SoftwareType,DateUTC
2013-05-06 00:14:00,58.0,54.0,29.83,SW,231,0.0,2.0,86,0.00,,,1.21,0,weatherlink.com 1.10,2013-05-06 04:14:00,
2013-05-06 00:29:00,57.5,54.0,29.83,SW,231,0.0,0.0,87,0.00,,,1.21,0,weatherlink.com 1.10,2013-05-06 04:29:00,
2013-05-06 00:44:00,56.8,53.0,29.82,SW,231,0.0,0.0,88,0.00,,,1.21,0,weatherlink.com 1.10,2013-05-06 04:44:00,
2013-05-06 00:59:00,56.4,53.0,29.82,SW,231,0.0,0.0,89,0.00,,,1.21,0,weatherlink.com 1.10,2013-05-06 04:59:00,
2013-05-06 01:14:00,56.0,53.0,29.83,SW,231,0.0,0.0,90,0.00,,,1.21,0,weatherlink.com 1.10,2013-05-06 05:14:00,
2013-05-06 01:29:00,55.8,53.0,29.83,SW,227,0.0,0.0,91,0.00,,,0.00,0,weatherlink.com 1.10,2013-05-06 05:29:00,
2013-05-06 01:44:00,55.7,54.0,29.83,SW,227,0.0,0.0,92,0.00,,,0.00,0,weatherlink.com 1.10,2013-05-06 05:44:00,
2013-05-06 01:59:00,55.6,53.0,29.83,SW,227,0.0,0.0,92,0.00,,,0.00,0,weatherlink.com 1.10,2013-05-06 05:59:00,
2013-05-06 02:14:00,55.4,53.0,29.83,SW,227,0.0,0.0,92,0.00,,,0.00,0,weatherlink.com 1.10,2013-05-06 06:14:00,
2013-05-06 02:29:00,55.0,53.0,29.82,SW,227,0.0,0.0,92,0.00,,,0.00,0,weatherlink.com 1.10,2013-05-06 06:29:00,
2013-05-06 02:45:00,54.5,52.0,29.82,SW,227,0.0,0.0,91,0.00,,,0.00,0,weatherlink.com 1.10,2013-05-06 06:45:00,
2013-05-06 03:00:00,53.9,51.0,29.82,SW,227,0.0,0.0,91,0.00,,,0.00,0,weatherlink.com 1.10,2013-05-06 07:00:00,
2013-05-06 03:15:00,53.6,51.0,29.82,SW,229,0.0,0.0,92,0.00,,,0.00,0,weatherlink.com 1.10,2013-05-06 07:15:00,
2013-05-06 03:30:00,53.3,51.0,29.82,SW,229,0.0,0.0,92,0.00,,,0.00,0,weatherlink.com 1.10,2013-05-06 07:30:00,
2013-05-06 03:45:00,53.1,51.0,29.82,SW,229,0.0,0.0,92,0.00,,,0.00,0,weatherlink.com 1.10,2013-05-06 07:45:00,
2013-05-06 04:00:00,52.6,50.0,29.82,SW,229,0.0,0.0,92,0.00,,,0.00,0,weatherlink.com 1.10,2013-05-06 08:00:00,
2013-05-06 04:15:00,52.2,50.0,29.83,SW,229,0.0,0.0,92,0.00,,,0.00,0,weatherlink.com 1.10,2013-05-06 08:15:00,
2013-05-06 04:30:00,51.9,50.0,29.83,SW,229,0.0,0.0,93,0.00,,,0.00,0,weatherlink.com 1.10,2013-05-06 08:30:00,
2013-05-06 04:45:00,51.7,50.0,29.83,SW,229,0.0,0.0,93,0.00,,,0.00,0,weatherlink.com 1.10,2013-05-06 08:45:00,
2013-05-06 05:00:00,51.5,50.0,29.84,SW,229,0.0,0.0,93,0.00,,,0.00,0,weatherlink.com 1.10,2013-05-06 09:00:00,
2013-05-06 05:15:00,51.3,49.0,29.84,SW,229,0.0,0.0,93,0.00,,,0.00,0,weatherlink.com 1.10,2013-05-06 09:15:00,
2013-05-06 05:30:00,51.3,49.0,29.84,SW,229,0.0,0.0,93,0.00,,,0.00,0,weatherlink.com 1.10,2013-05-06 09:30:00,
2013-05-06 05:45:00,51.2,49.0,29.85,SW,229,0.0,0.0,93,0.00,,,0.00,0,weatherlink.com 1.10,2013-05-06 09:45:00,
2013-05-06 06:00:00,50.8,49.0,29.85,SW,229,0.0,0.0,94,0.00,,,0.00,0,weatherlink.com 1.10,2013-05-06 10:00:00,
2013-05-06 06:15:00,50.4,49.0,29.85,WNW,302,0.0,5.0,94,0.00,,,0.00,0,weatherlink.com 1.10,2013-05-06 10:15:00,
2013-05-06 06:30:00,50.1,49.0,29.86,WNW,302,0.0,1.0,94,0.00,,,0.00,0,weatherlink.com 1.10,2013-05-06 10:30:00,
2013-05-06 06:45:00,50.0,48.0,29.86,WNW,302,0.0,1.0,94,0.00,,,0.00,0,weatherlink.com 1.10,2013-05-06 10:45:00,
2013-05-06 07:00:00,50.2,49.0,29.87,NNW,329,0.0,5.0,94,0.00,,,0.00,7,weatherlink.com 1.10,2013-05-06 11:00:00,
2013-05-06 07:15:00,50.4,49.0,29.88,NNW,329,0.0,1.0,95,0.00,,,0.00,12,weatherlink.com 1.10,2013-05-06 11:15:00,
2013-05-06 07:30:00,50.5,49.0,29.89,NW,306,1.0,2.0,95,0.00,,,0.00,26,weatherlink.com 1.10,2013-05-06 11:30:00,
2013-05-06 07:45:00,50.7,49.0,29.89,NE,47,0.0,3.0,95,0.00,,,0.00,26,weatherlink.com 1.10,2013-05-06 11:45:00,
2013-05-06 08:00:00,50.9,50.0,29.89,NNW,329,0.0,3.0,95,0.00,,,0.00,139,weatherlink.com 1.10,2013-05-06 12:00:00,
2013-05-06 08:15:00,51.2,50.0,29.89,NNW,329,0.0,1.0,95,0.00,,,0.00,292,weatherlink.com 1.10,2013-05-06 12:15:00,
2013-05-06 08:30:00,52.7,51.0,29.90,NNW,329,0.0,4.0,95,0.00,,,0.00,359,weatherlink.com 1.10,2013-05-06 12:30:00,
2013-05-06 08:45:00,53.8,51.0,29.90,NNW,340,0.0,4.0,89,0.00,,,0.00,445,weatherlink.com 1.10,2013-05-06 12:45:00,
2013-05-06 09:00:00,55.8,51.0,29.91,NNW,335,0.0,3.0,84,0.00,,,0.00,522,weatherlink.com 1.10,2013-05-06 13:00:00,
2013-05-06 09:15:00,56.5,51.0,29.91,NW,315,0.0,6.0,82,0.00,,,0.00,647,weatherlink.com 1.10,2013-05-06 13:15:00,
2013-05-06 09:30:00,56.6,51.0,29.91,NNW,335,0.0,2.0,80,0.00,,,0.00,392,weatherlink.com 1.10,2013-05-06 13:30:00,
2013-05-06 09:45:00,57.7,50.0,29.91,NNW,329,2.0,5.0,76,0.00,,,0.00,278,weatherlink.com 1.10,2013-05-06 13:45:00,
2013-05-06 10:01:00,56.0,50.0,29.92,West,259,0.0,4.0,79,0.00,,,0.00,260,weatherlink.com 1.10,2013-05-06 14:01:00,
2013-05-06 10:16:00,55.4,49.0,29.93,WSW,258,0.0,3.0,79,0.00,,,0.00,278,weatherlink.com 1.10,2013-05-06 14:16:00,
2013-05-06 10:31:00,57.2,51.0,29.93,NNW,333,0.0,1.0,79,0.00,,,0.00,443,weatherlink.com 1.10,2013-05-06 14:31:00,
2013-05-06 10:46:00,56.4,50.0,29.93,WSW,258,0.0,5.0,80,0.00,,,0.00,322,weatherlink.com 1.10,2013-05-06 14:46:00,
2013-05-06 11:01:00,58.4,52.0,29.93,NW,320,0.0,4.0,78,0.00,,,0.00,742,weatherlink.com 1.10,2013-05-06 15:01:00,
2013-05-06 11:16:00,60.1,53.0,29.94,WSW,239,3.0,6.0,78,0.00,,,0.00,963,weatherlink.com 1.10,2013-05-06 15:16:00,
2013-05-06 11:31:00,60.7,52.0,29.93,SW,230,0.0,6.0,73,0.00,,,0.00,833,weatherlink.com 1.10,2013-05-06 15:31:00,
2013-05-06 11:46:00,63.0,53.0,29.93,West,277,0.0,4.0,70,0.00,,,0.00,947,weatherlink.com 1.10,2013-05-06 15:46:00,
2013-05-06 12:01:00,63.9,52.0,29.93,SW,216,0.0,8.0,65,0.00,,,0.00,954,weatherlink.com 1.10,2013-05-06 16:01:00,
2013-05-06 12:16:00,65.2,53.0,29.93,WNW,303,0.0,6.0,64,0.00,,,0.00,967,weatherlink.com 1.10,2013-05-06 16:16:00,
2013-05-06 12:31:00,65.3,51.0,29.92,WNW,301,0.0,6.0,60,0.00,,,0.00,986,weatherlink.com 1.10,2013-05-06 16:31:00,
2013-05-06 12:46:00,64.9,52.0,29.92,WSW,246,0.0,5.0,63,0.00,,,0.00,1011,weatherlink.com 1.10,2013-05-06 16:46:00,
2013-05-06 13:01:00,65.4,52.0,29.92,NNW,328,2.0,10.0,63,0.00,,,0.00,1000,weatherlink.com 1.10,2013-05-06 17:01:00,
2013-05-06 13:16:00,66.0,53.0,29.91,NNW,338,8.0,8.0,63,0.00,,,0.00,1090,weatherlink.com 1.10,2013-05-06 17:16:00,
2013-05-06 13:31:00,66.1,52.0,29.91,NNW,337,3.0,8.0,60,0.00,,,0.00,482,weatherlink.com 1.10,2013-05-06 17:31:00,
2013-05-06 13:46:00,66.1,52.0,29.90,NW,317,0.0,6.0,61,0.00,,,0.00,935,weatherlink.com 1.10,2013-05-06 17:46:00,
2013-05-06 14:01:00,66.6,52.0,29.90,North,360,0.0,7.0,60,0.00,,,0.00,156,weatherlink.com 1.10,2013-05-06 18:01:00,
2013-05-06 14:16:00,67.4,53.0,29.89,NW,325,0.0,7.0,60,0.00,,,0.00,388,weatherlink.com 1.10,2013-05-06 18:16:00,
2013-05-06 14:31:00,66.5,51.0,29.89,NW,323,0.0,6.0,58,0.00,,,0.00,323,weatherlink.com 1.10,2013-05-06 18:31:00,
2013-05-06 14:46:00,66.8,51.0,29.89,North,11,0.0,6.0,57,0.00,,,0.00,142,weatherlink.com 1.10,2013-05-06 18:46:00,
2013-05-06 15:01:00,65.9,51.0,29.88,WSW,254,0.0,8.0,58,0.00,,,0.00,135,weatherlink.com 1.10,2013-05-06 19:01:00,
2013-05-06 15:16:00,66.7,52.0,29.88,North,11,0.0,7.0,59,0.00,,,0.00,1041,weatherlink.com 1.10,2013-05-06 19:16:00,
2013-05-06 15:31:00,67.7,50.0,29.88,WSW,239,0.0,6.0,54,0.00,,,0.00,942,weatherlink.com 1.10,2013-05-06 19:31:00,
2013-05-06 15:46:00,68.6,51.0,29.88,West,276,3.0,8.0,53,0.00,,,0.00,255,weatherlink.com 1.10,2013-05-06 19:46:00,
2013-05-06 16:01:00,67.7,50.0,29.87,WSW,237,0.0,6.0,54,0.00,,,0.00,151,weatherlink.com 1.10,2013-05-06 20:01:00,
2013-05-06 16:16:00,67.9,50.0,29.86,SSW,193,1.0,7.0,53,0.00,,,0.00,821,weatherlink.com 1.10,2013-05-06 20:16:00,
2013-05-06 16:31:00,67.6,50.0,29.86,NW,309,0.0,10.0,53,0.00,,,0.00,202,weatherlink.com 1.10,2013-05-06 20:31:00,
2013-05-06 16:46:00,67.4,51.0,29.86,NW,317,1.0,6.0,56,0.00,,,0.00,294,weatherlink.com 1.10,2013-05-06 20:46:00,
2013-05-06 17:01:00,66.6,52.0,29.86,WNW,290,0.0,4.0,60,0.00,,,0.00,276,weatherlink.com 1.10,2013-05-06 21:01:00,
2013-05-06 17:16:00,66.2,52.0,29.88,NNW,332,1.0,8.0,60,0.00,,,0.00,271,weatherlink.com 1.10,2013-05-06 21:16:00,
2013-05-06 17:31:00,64.6,52.0,29.88,WSW,238,0.0,9.0,63,0.00,,,0.00,264,weatherlink.com 1.10,2013-05-06 21:31:00,
2013-05-06 17:46:00,64.0,51.0,29.88,West,281,0.0,9.0,63,0.00,,,0.00,163,weatherlink.com 1.10,2013-05-06 21:46:00,
2013-05-06 18:01:00,63.7,50.0,29.88,NW,308,0.0,7.0,61,0.00,,,0.00,183,weatherlink.com 1.10,2013-05-06 22:01:00,
2013-05-06 18:16:00,63.1,50.0,29.88,SW,223,0.0,7.0,63,0.00,,,0.00,125,weatherlink.com 1.10,2013-05-06 22:16:00,
2013-05-06 18:31:00,62.6,51.0,29.89,North,5,0.0,2.0,65,0.00,,,0.00,100,weatherlink.com 1.10,2013-05-06 22:31:00,
2013-05-06 18:46:00,62.5,51.0,29.89,NW,316,0.0,4.0,66,0.00,,,0.00,69,weatherlink.com 1.10,2013-05-06 22:46:00,
2013-05-06 19:01:00,61.7,51.0,29.89,NNW,329,0.0,7.0,67,0.00,,,0.00,49,weatherlink.com 1.10,2013-05-06 23:01:00,
2013-05-06 19:16:00,60.9,50.0,29.89,NW,311,2.0,5.0,68,0.00,,,0.00,42,weatherlink.com 1.10,2013-05-06 23:16:00,
2013-05-06 19:31:00,60.6,51.0,29.89,North,351,0.0,2.0,70,0.00,,,0.00,19,weatherlink.com 1.10,2013-05-06 23:31:00,
2013-05-06 19:46:00,59.7,51.0,29.89,North,350,0.0,1.0,72,0.00,,,0.00,9,weatherlink.com 1.10,2013-05-06 23:46:00,
2013-05-06 20:01:00,58.7,51.0,29.90,North,350,0.0,0.0,75,0.00,,,0.00,9,weatherlink.com 1.10,2013-05-07 00:01:00,
2013-05-06 20:16:00,58.0,50.0,29.91,North,350,0.0,0.0,76,0.00,,,0.00,0,weatherlink.com 1.10,2013-05-07 00:16:00,
2013-05-06 20:31:00,57.3,51.0,29.91,North,350,0.0,0.0,79,0.00,,,0.00,0,weatherlink.com 1.10,2013-05-07 00:31:00,
2013-05-06 20:46:00,56.7,51.0,29.91,North,350,0.0,0.0,81,0.00,,,0.00,0,weatherlink.com 1.10,2013-05-07 00:46:00,
2013-05-06 21:01:00,56.4,51.0,29.91,North,350,0.0,0.0,82,0.00,,,0.00,0,weatherlink.com 1.10,2013-05-07 01:01:00,
2013-05-06 21:16:00,56.0,50.0,29.92,North,350,0.0,0.0,81,0.00,,,0.00,0,weatherlink.com 1.10,2013-05-07 01:16:00,
2013-05-06 21:31:00,56.0,49.0,29.93,NNW,347,0.0,3.0,78,0.00,,,0.00,0,weatherlink.com 1.10,2013-05-07 01:31:00,
2013-05-06 21:46:00,56.1,49.0,29.93,NNW,347,0.0,1.0,77,0.00,,,0.00,0,weatherlink.com 1.10,2013-05-07 01:46:00,
2013-05-06 22:01:00,55.7,48.0,29.93,NNW,347,0.0,0.0,76,0.00,,,0.00,0,weatherlink.com 1.10,2013-05-07 02:01:00,
2013-05-06 22:16:00,55.3,49.0,29.94,NNW,347,0.0,0.0,79,0.00,,,0.00,0,weatherlink.com 1.10,2013-05-07 02:16:00,
2013-05-06 22:31:00,54.8,49.0,29.94,NNW,347,0.0,0.0,80,0.00,,,0.00,0,weatherlink.com 1.10,2013-05-07 02:31:00,
2013-05-06 22:46:00,54.6,49.0,29.94,NNW,347,0.0,0.0,81,0.00,,,0.00,0,weatherlink.com 1.10,2013-05-07 02:46:00,
2013-05-06 23:01:00,54.5,49.0,29.95,NNW,347,0.0,0.0,83,0.00,,,0.00,0,weatherlink.com 1.10,2013-05-07 03:01:00,
2013-05-06 23:16:00,54.8,49.0,29.94,NNW,347,0.0,0.0,80,0.00,,,0.00,0,weatherlink.com 1.10,2013-05-07 03:16:00,
2013-05-06 23:31:00,54.2,49.0,29.94,NNW,347,0.0,0.0,81,0.00,,,0.00,0,weatherlink.com 1.10,2013-05-07 03:31:00,
2013-05-06 23:46:00,53.1,48.0,29.93,NNW,347,0.0,0.0,84,0.00,,,0.00,0,weatherlink.com 1.10,2013-05-07 03:46:00,